createdAt,value
2016-04-20T08:27:43.985Z,21.66
2016-04-20T08:28:44.081Z,21.38
2016-04-20T08:29:44.286Z,21.28
2016-04-20T08:30:44.039Z,21.47
2016-04-20T08:31:43.980Z,21.38
2016-04-20T08:32:43.935Z,21.38
2016-04-20T08:33:55.925Z,21.38
2016-04-20T08:34:43.847Z,21.47
2016-04-20T08:35:44.037Z,21.27
2016-04-20T08:36:43.727Z,21.47
2016-04-20T08:37:44.152Z,21.37
2016-04-20T08:38:47.060Z,21.38
2016-04-20T08:39:43.642Z,21.37
2016-04-20T08:40:44.176Z,21.38
2016-04-20T08:41:43.601Z,21.47
2016-04-20T08:42:43.462Z,21.47
2016-04-20T08:43:43.481Z,21.66
2016-04-20T08:44:49.393Z,21.77
2016-04-20T08:45:46.440Z,21.67
2016-04-20T08:46:46.332Z,21.56
2016-04-20T08:47:49.338Z,21.38
2016-04-20T08:48:43.198Z,21.47
2016-04-20T08:49:43.420Z,21.27
2016-04-20T08:50:43.109Z,21.47
2016-04-20T08:51:43.393Z,21.37
2016-04-20T08:52:46.239Z,20.98
2016-04-20T08:53:42.976Z,20.98
2016-04-20T08:54:42.917Z,21.09
2016-04-20T08:55:45.169Z,21.19
2016-04-20T08:56:42.813Z,21.09
2016-04-20T08:57:42.846Z,21.27
2016-04-20T08:58:42.787Z,21.08
2016-04-20T08:59:42.867Z,21.08
2016-04-20T09:00:42.855Z,21
2016-04-20T09:01:42.592Z,20.9
2016-04-20T09:02:45.750Z,21.09
2016-04-20T09:03:42.503Z,21.28
2016-04-20T09:04:42.505Z,21.19
2016-04-20T09:05:42.399Z,21.28
2016-04-20T09:06:42.354Z,21.09
2016-04-20T09:07:42.327Z,21.09
2016-04-20T09:08:42.298Z,21.09
2016-04-20T09:09:42.254Z,21.08
2016-04-20T09:10:42.179Z,20.98
2016-04-20T09:11:42.150Z,21.09
2016-04-20T09:12:42.106Z,21
2016-04-20T09:13:42.249Z,21.19
2016-04-20T09:14:45.002Z,20.7
2016-04-20T09:15:41.957Z,21.09
2016-04-20T09:16:41.913Z,20.8
2016-04-20T09:17:41.947Z,20.7
2016-04-20T09:18:41.825Z,20.8
2016-04-20T09:19:42.281Z,20.9
2016-04-20T09:20:41.737Z,21
2016-04-20T09:21:41.708Z,21
2016-04-20T09:22:41.647Z,20.61
2016-04-20T09:23:41.603Z,20.7
2016-04-20T09:24:44.763Z,20.9
2016-04-20T09:25:44.515Z,20.61
2016-04-20T09:26:41.455Z,20.51
2016-04-20T09:27:41.457Z,20.61
2016-04-20T09:28:41.398Z,20.8
2016-04-20T09:29:41.322Z,20.9
2016-04-20T09:30:41.310Z,21
2016-04-20T09:31:41.437Z,21.09
2016-04-20T09:32:41.174Z,20.9
2016-04-20T09:33:41.145Z,20.7
2016-04-20T09:34:48.539Z,20.51
2016-04-20T09:35:41.057Z,20.61
2016-04-20T09:36:40.997Z,20.33
2016-04-20T09:37:41.156Z,20.53
2016-04-20T09:38:41.127Z,20.8
2016-04-20T09:39:40.896Z,20.61
2016-04-20T09:40:40.851Z,20.7
2016-04-20T09:41:40.776Z,20.62
2016-04-20T09:42:43.732Z,20.7
2016-04-20T09:43:40.672Z,22.15
2016-04-20T09:44:40.644Z,21.48
2016-04-20T09:45:40.599Z,21.48
2016-04-20T09:46:40.571Z,21.38
2016-04-20T09:47:40.527Z,21.09
2016-04-20T09:48:40.483Z,20.9
2016-04-20T09:49:49.457Z,20.42
2016-04-20T09:50:43.753Z,20.61
2016-04-20T09:51:40.335Z,20.51
2016-04-20T09:52:40.477Z,20.51
2016-04-20T09:53:40.465Z,20.32
2016-04-20T09:54:40.218Z,20.42
2016-04-20T09:55:40.158Z,20.61
2016-04-20T09:56:40.176Z,20.61
2016-04-20T09:57:40.054Z,20.61
2016-04-20T09:58:40.010Z,20.32
2016-04-20T09:59:39.965Z,20.23
2016-04-20T10:00:40.718Z,20.42
2016-04-20T10:01:40.079Z,20.23
2016-04-20T10:02:39.817Z,20.13
2016-04-20T10:03:39.820Z,20.23
2016-04-20T10:04:39.744Z,20.13
2016-04-20T10:05:42.700Z,20.32
2016-04-20T10:06:39.656Z,20.23
2016-04-20T10:07:39.798Z,20.13
2016-04-20T10:08:39.567Z,20.23
2016-04-20T10:09:39.492Z,20.03
2016-04-20T10:10:39.511Z,20.32
2016-04-20T10:11:39.420Z,19.74
2016-04-20T10:12:39.453Z,20.03
2016-04-20T10:13:39.347Z,19.74
2016-04-20T10:14:39.537Z,19.74
2016-04-20T10:15:39.259Z,19.74
2016-04-20T10:16:39.198Z,19.93
2016-04-20T10:17:39.186Z,19.93
2016-04-20T10:18:42.204Z,19.93
2016-04-20T10:19:39.081Z,20.03
2016-04-20T10:20:39.022Z,20.03
2016-04-20T10:21:39.025Z,19.84
2016-04-20T10:22:38.964Z,19.93
2016-04-20T10:23:38.905Z,19.93
2016-04-20T10:24:38.845Z,19.84
2016-04-20T10:25:38.785Z,19.93
2016-04-20T10:26:39.147Z,19.84
2016-04-20T10:27:38.681Z,19.84
2016-04-20T10:28:38.668Z,20.03
2016-04-20T10:29:38.624Z,19.93
2016-04-20T10:30:38.768Z,19.93
2016-04-20T10:31:38.504Z,19.93
2016-04-20T10:32:38.538Z,19.93
2016-04-20T10:33:38.432Z,19.93
2016-04-20T10:34:38.388Z,20.13
2016-04-20T10:35:38.344Z,19.84
2016-04-20T10:36:38.284Z,19.93
2016-04-20T10:37:38.254Z,20.13
2016-04-20T10:38:47.398Z,20.13
2016-04-20T10:39:38.167Z,19.93
2016-04-20T10:40:38.106Z,20.23
2016-04-20T10:41:41.579Z,20.23
2016-04-20T10:42:38.003Z,20.9
2016-04-20T10:43:38.084Z,20.7
2016-04-20T10:44:37.992Z,20.8
2016-04-20T10:45:38.105Z,20.51
2016-04-20T10:46:40.826Z,20.61
2016-04-20T10:47:41.032Z,20.61
2016-04-20T10:48:37.863Z,20.51
2016-04-20T10:49:38.131Z,20.32
2016-04-20T10:50:37.883Z,20.32
2016-04-20T10:51:37.636Z,20.32
2016-04-20T10:52:40.764Z,20.42
2016-04-20T10:53:37.579Z,20.32
2016-04-20T10:54:37.472Z,20.42
2016-04-20T10:55:40.819Z,20.61
2016-04-20T10:56:37.385Z,20.51
2016-04-20T10:57:37.527Z,20.51
2016-04-20T10:58:37.296Z,20.51
2016-04-20T10:59:37.313Z,20.23
2016-04-20T11:00:37.191Z,20.32
2016-04-20T11:01:37.569Z,20.51
2016-04-20T11:02:37.119Z,20.42
2016-04-20T11:03:37.107Z,20.8
2016-04-20T11:04:37.031Z,20.32
2016-04-20T11:05:37.299Z,20.51
2016-04-20T11:06:36.957Z,20.61
2016-04-20T11:07:39.898Z,20.13
2016-04-20T11:08:36.854Z,20.42
2016-04-20T11:09:39.795Z,20.23
2016-04-20T11:10:36.953Z,20.42
2016-04-20T11:11:36.706Z,20.23
2016-04-20T11:12:36.662Z,20.23
2016-04-20T11:13:36.634Z,20.23
2016-04-20T11:14:36.808Z,20.23
2016-04-20T11:15:36.529Z,20.13
2016-04-20T11:16:36.516Z,20.23
2016-04-20T11:17:36.862Z,20.23
2016-04-20T11:18:36.412Z,20.13
2016-04-20T11:19:36.400Z,20.13
2016-04-20T11:20:36.309Z,20.23
2016-04-20T11:21:36.280Z,20.23
2016-04-20T11:22:36.830Z,20.32
2016-04-20T11:23:36.128Z,20.32
2016-04-20T11:24:36.131Z,20.23
2016-04-20T11:25:36.275Z,20.23
2016-04-20T11:26:39.074Z,20.23
2016-04-20T11:27:36.093Z,20.13
2016-04-20T11:28:39.063Z,20.03
2016-04-20T11:29:35.879Z,20.13
2016-04-20T11:30:35.866Z,19.74
2016-04-20T11:31:35.682Z,19.65
2016-04-20T11:32:35.747Z,19.74
2016-04-20T11:33:38.906Z,19.74
2016-04-20T11:34:38.658Z,19.74
2016-04-20T11:35:35.615Z,19.84
2016-04-20T11:36:36.070Z,19.93
2016-04-20T11:37:35.541Z,19.93
2016-04-20T11:38:35.482Z,19.84
2016-04-20T11:39:38.626Z,19.93
2016-04-20T11:40:35.596Z,20.03
2016-04-20T11:41:35.381Z,19.84
2016-04-20T11:42:38.304Z,19.93
2016-04-20T11:43:35.323Z,19.84
2016-04-20T11:44:38.638Z,19.93
2016-04-20T11:45:35.392Z,19.85
2016-04-20T11:46:35.206Z,20.13
2016-04-20T11:47:38.146Z,20.13
2016-04-20T11:48:35.321Z,20.03
2016-04-20T11:49:35.073Z,20.13
2016-04-20T11:50:35.045Z,20.13
2016-04-20T11:51:34.892Z,20.03
2016-04-20T11:52:34.863Z,19.93
2016-04-20T11:53:34.803Z,19.84
2016-04-20T11:54:34.775Z,20.14
2016-04-20T11:55:35.199Z,20.04
2016-04-20T11:56:35.546Z,20.13
2016-04-20T11:57:34.657Z,20.13
2016-04-20T11:58:34.629Z,19.84
2016-04-20T11:59:34.570Z,19.65
2016-04-20T12:00:34.650Z,19.85
2016-04-20T12:01:34.466Z,19.74
2016-04-20T12:02:34.499Z,19.75
2016-04-20T12:03:34.345Z,19.75
2016-04-20T12:04:34.301Z,19.65
2016-04-20T12:05:34.461Z,19.85
2016-04-20T12:06:34.291Z,19.85
2016-04-20T12:07:34.169Z,19.85
2016-04-20T12:08:34.124Z,19.85
2016-04-20T12:09:34.268Z,19.85
2016-04-20T12:10:34.442Z,19.75
2016-04-20T12:11:34.117Z,19.85
2016-04-20T12:12:34.402Z,19.65
2016-04-20T12:13:37.342Z,20.04
2016-04-20T12:14:33.938Z,19.74
2016-04-20T12:15:33.815Z,19.55
2016-04-20T12:16:33.802Z,19.85
2016-04-20T12:17:33.759Z,19.75
2016-04-20T12:18:33.684Z,19.65
2016-04-20T12:19:33.686Z,19.65
2016-04-20T12:20:33.657Z,19.65
2016-04-20T12:21:36.628Z,19.65
2016-04-20T12:22:33.522Z,19.55
2016-04-20T12:23:33.509Z,19.27
2016-04-20T12:24:33.402Z,19.45
2016-04-20T12:25:33.311Z,19.56
2016-04-20T12:26:33.719Z,19.55
2016-04-20T12:27:33.269Z,19.27
2016-04-20T12:28:33.241Z,19.56
2016-04-20T12:29:36.197Z,19.55
2016-04-20T12:30:33.277Z,19.55
2016-04-20T12:31:33.109Z,19.55
2016-04-20T12:32:33.032Z,19.17
2016-04-20T12:33:33.020Z,19.55
2016-04-20T12:34:33.007Z,19.55
2016-04-20T12:35:33.057Z,19.26
2016-04-20T12:36:33.232Z,19.36
2016-04-20T12:37:32.844Z,19.45
2016-04-20T12:38:32.971Z,19.36
2016-04-20T12:39:35.943Z,19.45
2016-04-20T12:40:32.665Z,19.45
2016-04-20T12:41:32.668Z,19.26
2016-04-20T12:42:32.591Z,19.36
2016-04-20T12:43:32.531Z,19.46
2016-04-20T12:44:32.487Z,19.45
2016-04-20T12:45:32.615Z,19.45
2016-04-20T12:46:32.634Z,19.36
2016-04-20T12:47:32.355Z,19.36
2016-04-20T12:48:32.326Z,19.45
2016-04-20T12:49:35.767Z,19.55
2016-04-20T12:50:32.331Z,19.36
2016-04-20T12:51:32.178Z,19.26
2016-04-20T12:52:32.259Z,19.45
2016-04-20T12:53:32.308Z,19.55
2016-04-20T12:54:32.233Z,19.45
2016-04-20T12:55:32.033Z,19.07
2016-04-20T12:56:31.958Z,19.55
2016-04-20T12:57:31.975Z,19.36
2016-04-20T12:58:31.869Z,19.45
2016-04-20T12:59:32.278Z,19.45
2016-04-20T13:00:34.780Z,19.55
2016-04-20T13:01:31.954Z,19.55
2016-04-20T13:02:31.723Z,19.65
2016-04-20T13:03:31.633Z,19.65
2016-04-20T13:04:31.588Z,19.45
2016-04-20T13:05:31.669Z,19.55
2016-04-20T13:06:31.624Z,19.36
2016-04-20T13:07:32.533Z,19.36
2016-04-20T13:08:31.411Z,19.45
2016-04-20T13:09:31.368Z,19.45
2016-04-20T13:10:34.323Z,19.26
2016-04-20T13:11:34.262Z,19.45
2016-04-20T13:12:31.296Z,19.36
2016-04-20T13:13:31.221Z,19.36
2016-04-20T13:14:31.162Z,19.45
2016-04-20T13:15:31.196Z,19.26
2016-04-20T13:16:31.120Z,19.26
2016-04-20T13:17:34.014Z,19.45
2016-04-20T13:18:31.032Z,19.36
2016-04-20T13:19:30.956Z,19.36
2016-04-20T13:20:31.162Z,19.36
2016-04-20T13:21:31.212Z,19.55
2016-04-20T13:22:30.792Z,19.36
2016-04-20T13:23:30.748Z,19.55
2016-04-20T13:24:31.203Z,19.45
2016-04-20T13:25:30.660Z,19.45
2016-04-20T13:26:30.694Z,19.45
2016-04-20T13:27:30.541Z,19.55
2016-04-20T13:28:30.715Z,19.46
2016-04-20T13:29:30.499Z,19.17
2016-04-20T13:30:30.439Z,19.55
2016-04-20T13:31:30.488Z,19.36
2016-04-20T13:32:30.523Z,19.36
2016-04-20T13:33:30.400Z,19.36
2016-04-20T13:34:30.247Z,19.26
2016-04-20T13:35:30.187Z,19.17
2016-04-20T13:36:30.174Z,19.37
2016-04-20T13:37:33.910Z,19.18
2016-04-20T13:38:30.102Z,19.17
2016-04-20T13:39:30.026Z,19.17
2016-04-20T13:40:32.982Z,19.17
2016-04-20T13:41:30.110Z,19.17
2016-04-20T13:42:32.940Z,19.17
2016-04-20T13:43:29.817Z,19.07
2016-04-20T13:44:29.993Z,19.27
2016-04-20T13:45:29.776Z,19.26
2016-04-20T13:46:32.920Z,19.27
2016-04-20T13:47:29.640Z,19.07
2016-04-20T13:48:49.863Z,19.17
2016-04-20T13:49:29.553Z,19.17
2016-04-20T13:50:30.243Z,19.26
2016-04-20T13:51:29.448Z,19.36
2016-04-20T13:52:29.765Z,19.27
2016-04-20T13:53:29.376Z,19.08
2016-04-20T13:54:29.675Z,19.26
2016-04-20T13:55:29.381Z,19.56
2016-04-20T13:56:29.306Z,19.08
2016-04-20T13:57:29.214Z,19.18
2016-04-20T13:58:29.265Z,19.46
2016-04-20T13:59:29.111Z,19.46
2016-04-20T14:00:29.270Z,19.26
2016-04-20T14:01:29.086Z,19.27
2016-04-20T14:02:28.947Z,19.18
2016-04-20T14:03:28.934Z,19.37
2016-04-20T14:04:28.858Z,19.46
2016-04-20T14:05:29.080Z,19.46
2016-04-20T14:06:28.988Z,19.18
2016-04-20T14:07:28.852Z,19.18
2016-04-20T14:08:28.682Z,19.37
2016-04-20T14:09:28.716Z,19.56
2016-04-20T14:10:28.594Z,19.37
2016-04-20T14:11:28.596Z,19.18
2016-04-20T14:12:28.505Z,19.27
2016-04-20T14:13:28.461Z,19.18
2016-04-20T14:14:28.418Z,19.27
2016-04-20T14:15:28.388Z,19.18
2016-04-20T14:16:31.359Z,19.27
2016-04-20T14:17:31.284Z,19.27
2016-04-20T14:18:28.240Z,19.27
2016-04-20T14:19:28.181Z,19.27
2016-04-20T14:20:28.246Z,19.08
2016-04-20T14:21:28.076Z,19.18
2016-04-20T14:22:28.111Z,19.27
2016-04-20T14:23:28.035Z,19.18
2016-04-20T14:24:28.038Z,19.27
2016-04-20T14:25:28.119Z,19.37
2016-04-20T14:26:27.888Z,19.37
2016-04-20T14:27:28.046Z,19.27
2016-04-20T14:28:28.002Z,19.27
2016-04-20T14:29:27.740Z,19.37
2016-04-20T14:30:27.696Z,19.27
2016-04-20T14:31:27.651Z,19.18
2016-04-20T14:32:27.669Z,19.18
2016-04-20T14:33:27.625Z,19.27
2016-04-20T14:34:27.612Z,19.18
2016-04-20T14:35:27.490Z,19.27
2016-04-20T14:36:27.555Z,19.27
2016-04-20T14:37:27.417Z,19.27
2016-04-20T14:38:27.342Z,19.27
2016-04-20T14:39:27.298Z,19.37
2016-04-20T14:40:30.456Z,19.27
2016-04-20T14:41:27.194Z,19.27
2016-04-20T14:42:27.165Z,19.18
2016-04-20T14:43:27.292Z,19.27
2016-04-20T14:44:27.077Z,19.37
2016-04-20T14:45:27.267Z,19.46
2016-04-20T14:46:26.989Z,19.37
2016-04-20T14:47:27.350Z,19.18
2016-04-20T14:48:26.885Z,19.37
2016-04-20T14:49:29.825Z,19.37
2016-04-20T14:50:26.780Z,19.27
2016-04-20T14:51:26.736Z,19.37
2016-04-20T14:52:26.707Z,19.46
2016-04-20T14:53:35.663Z,19.37
2016-04-20T14:54:26.791Z,19.46
2016-04-20T14:55:26.857Z,19.46
2016-04-20T14:56:26.515Z,19.27
2016-04-20T14:57:26.487Z,19.27
2016-04-20T14:58:26.412Z,19.46
2016-04-20T14:59:26.383Z,19.27
2016-04-20T15:00:26.338Z,19.27
2016-04-20T15:01:26.310Z,19.26
2016-04-20T15:02:29.312Z,19.08
2016-04-20T15:03:26.206Z,19.27
2016-04-20T15:04:26.395Z,19.46
2016-04-20T15:05:26.117Z,19.27
2016-04-20T15:06:27.964Z,19.27
2016-04-20T15:07:26.029Z,19.27
2016-04-20T15:08:26.032Z,19.27
2016-04-20T15:09:25.926Z,19.37
2016-04-20T15:10:25.881Z,19.27
2016-04-20T15:11:25.853Z,19.26
2016-04-20T15:12:25.808Z,19.18
2016-04-20T15:13:25.748Z,19.26
2016-04-20T15:14:25.813Z,19.37
2016-04-20T15:15:25.644Z,19.37
2016-04-20T15:16:25.616Z,19.27
2016-04-20T15:17:25.852Z,19.46
2016-04-20T15:18:28.527Z,19.27
2016-04-20T15:19:25.499Z,19.27
2016-04-20T15:20:25.424Z,19.27
2016-04-20T15:21:25.551Z,19.46
2016-04-20T15:22:25.538Z,19.18
2016-04-20T15:23:25.291Z,19.56
2016-04-20T15:24:28.246Z,19.95
2016-04-20T15:25:25.202Z,19.75
2016-04-20T15:26:28.252Z,20.13
2016-04-20T15:27:25.114Z,19.85
2016-04-20T15:28:25.086Z,19.75
2016-04-20T15:29:34.057Z,19.56
2016-04-20T15:30:25.123Z,19.37
2016-04-20T15:31:25.156Z,19.56
2016-04-20T15:32:24.971Z,19.46
2016-04-20T15:33:24.834Z,19.46
2016-04-20T15:34:24.804Z,19.46
2016-04-20T15:35:24.761Z,19.46
2016-04-20T15:36:24.705Z,19.56
2016-04-20T15:37:27.724Z,19.46
2016-04-20T15:38:24.617Z,19.46
2016-04-20T15:39:24.557Z,19.56
2016-04-20T15:40:27.529Z,19.65
2016-04-20T15:41:24.485Z,19.46
2016-04-20T15:42:24.644Z,19.27
2016-04-20T15:43:24.553Z,19.65
2016-04-20T15:44:24.353Z,19.46
2016-04-20T15:45:24.496Z,19.46
2016-04-20T15:46:24.249Z,19.46
2016-04-20T15:47:24.220Z,19.46
2016-04-20T15:48:24.301Z,19.46
2016-04-20T15:49:24.100Z,19.46
2016-04-20T15:50:24.072Z,19.56
2016-04-20T15:51:24.043Z,19.45
2016-04-20T15:52:24.249Z,19.65
2016-04-20T15:53:23.939Z,19.56
2016-04-20T15:54:23.926Z,19.56
2016-04-20T15:55:23.866Z,19.46
2016-04-20T15:56:23.790Z,19.46
2016-04-20T15:57:23.778Z,19.56
2016-04-20T15:58:23.943Z,19.07
2016-04-20T15:59:23.721Z,19.08
2016-04-20T16:00:23.735Z,19.08
2016-04-20T16:01:26.997Z,19.07
2016-04-20T16:02:23.729Z,19.17
2016-04-20T16:03:24.099Z,19.65
2016-04-20T16:04:27.007Z,19.36
2016-04-20T16:07:01.223Z,19.17
2016-04-20T16:08:01.331Z,19.26
2016-04-20T16:09:01.168Z,19.36
2016-04-20T16:10:01.286Z,19.07
2016-04-20T16:11:01.199Z,19.18
2016-04-20T16:12:01.193Z,19.17
2016-04-20T16:13:01.308Z,19.26
2016-04-20T16:14:04.063Z,19.26
2016-04-20T16:15:01.021Z,19.07
2016-04-20T16:16:01.073Z,19.45
2016-04-20T16:17:00.951Z,19.56
2016-04-20T16:18:01.112Z,19.45
2016-04-20T16:19:01.069Z,19.55
2016-04-20T16:20:00.791Z,19.45
2016-04-20T16:21:00.733Z,19.45
2016-04-20T16:22:00.704Z,19.07
2016-04-20T16:23:00.661Z,19.27
2016-04-20T16:24:00.632Z,19.26
2016-04-20T16:25:03.573Z,19.36
2016-04-20T16:26:00.529Z,19.18
2016-04-20T16:27:00.485Z,19.08
2016-04-20T16:28:00.910Z,19.07
2016-04-20T16:29:00.413Z,19.26
2016-04-20T16:30:00.369Z,19.18
2016-04-20T16:31:00.309Z,19.27
2016-04-20T16:32:00.452Z,19.27
2016-04-20T16:33:00.518Z,19.26
2016-04-20T16:34:00.160Z,19.18
2016-04-20T16:35:00.116Z,19.17
2016-04-20T16:36:00.072Z,19.18
2016-04-20T16:37:00.059Z,19.17
2016-04-20T16:38:02.968Z,19.37
2016-04-20T16:39:00.034Z,19.26
2016-04-20T16:40:02.896Z,19.27
2016-04-20T16:40:59.820Z,19.37
2016-04-20T16:41:59.792Z,19.46
2016-04-20T16:43:02.763Z,19.37
2016-04-20T16:44:02.937Z,19.08
2016-04-20T16:44:59.643Z,19.18
2016-04-20T16:45:59.818Z,19.18
2016-04-20T16:46:59.586Z,19.27
2016-04-20T16:47:59.542Z,19.27
2016-04-20T16:48:59.686Z,19.27
2016-04-20T16:49:59.642Z,19.27
2016-04-20T16:50:59.395Z,19.46
2016-04-20T16:51:59.350Z,19.27
2016-04-20T16:52:59.290Z,19.18
2016-04-20T16:53:59.261Z,19.46
2016-04-20T16:55:02.217Z,19.37
2016-04-20T16:55:59.189Z,19.37
2016-04-20T16:56:59.128Z,19.27
2016-04-20T16:57:59.069Z,19.46
2016-04-20T16:59:02.041Z,19.27
2016-04-20T16:59:58.981Z,19.56
2016-04-20T17:00:58.936Z,19.37
2016-04-20T17:01:58.924Z,19.37
2016-04-20T17:02:58.848Z,19.27
2016-04-20T17:03:58.804Z,19.18
2016-04-20T17:04:58.760Z,18.98
2016-04-20T17:05:58.716Z,18.98
2016-04-20T17:06:58.687Z,19.18
2016-04-20T17:07:58.643Z,18.98
2016-04-20T17:08:58.599Z,19.18
2016-04-20T17:09:58.617Z,19.08
2016-04-20T17:10:58.495Z,19.08
2016-04-20T17:11:58.435Z,19.18
2016-04-20T17:12:58.251Z,19.08
2016-04-20T17:13:58.362Z,18.88
2016-04-20T17:14:58.318Z,18.98
2016-04-20T17:15:58.259Z,18.88
2016-04-20T17:16:58.215Z,19.08
2016-04-20T17:18:01.217Z,19.08
2016-04-20T17:18:58.406Z,19.27
2016-04-20T17:19:58.284Z,19.08
2016-04-20T17:20:58.256Z,19.18
2016-04-20T17:21:57.978Z,19.08
2016-04-20T17:22:57.949Z,19.08
2016-04-20T17:24:01.123Z,18.98
2016-04-20T17:24:57.861Z,19.18
2016-04-20T17:25:57.817Z,19.18
2016-04-20T17:26:58.069Z,19.08
2016-04-20T17:27:57.805Z,19.08
2016-04-20T17:29:00.886Z,18.79
2016-04-20T17:30:00.922Z,18.98
2016-04-20T17:30:57.595Z,19.08
2016-04-20T17:31:57.613Z,18.98
2016-04-20T17:32:57.523Z,18.88
2016-04-20T17:33:57.525Z,18.98
2016-04-20T17:34:57.403Z,18.98
2016-04-20T17:35:57.406Z,18.98
2016-04-20T17:36:57.315Z,18.88
2016-04-20T17:37:57.411Z,18.98
2016-04-20T17:38:57.226Z,18.98
2016-04-20T17:39:57.166Z,18.98
2016-04-20T17:40:57.122Z,18.98
2016-04-20T17:41:57.094Z,18.98
2016-04-20T17:42:57.066Z,18.98
2016-04-20T17:43:56.990Z,18.98
2016-04-20T17:44:56.946Z,18.98
2016-04-20T17:45:57.152Z,19.08
2016-04-20T17:46:59.857Z,19.08
2016-04-20T17:47:57.079Z,18.98
2016-04-20T17:48:56.831Z,18.88
2016-04-20T17:49:56.741Z,18.88
2016-04-20T17:50:56.915Z,19.08
2016-04-20T17:51:57.621Z,19.08
2016-04-20T17:52:56.576Z,18.98
2016-04-20T17:53:59.835Z,18.98
2016-04-20T17:54:56.541Z,18.98
2016-04-20T17:55:56.465Z,18.98
2016-04-20T17:56:56.624Z,18.79
2016-04-20T17:57:59.424Z,18.98
2016-04-20T17:58:56.348Z,19.08
2016-04-20T17:59:56.289Z,18.98
2016-04-20T18:00:56.213Z,18.98
2016-04-20T18:01:56.216Z,18.98
2016-04-20T18:02:56.125Z,18.79
2016-04-20T18:03:56.096Z,18.98
2016-04-20T18:04:56.318Z,19.08
2016-04-20T18:05:56.039Z,19.08
2016-04-20T18:06:55.915Z,18.88
2016-04-20T18:07:55.917Z,19.08
2016-04-20T18:08:55.859Z,19.08
2016-04-20T18:09:55.861Z,19.08
2016-04-20T18:10:55.988Z,19.08
2016-04-20T18:11:55.851Z,18.5
2016-04-20T18:12:58.697Z,18.79
2016-04-20T18:13:55.621Z,18.3
2016-04-20T18:14:55.577Z,18.4
2016-04-20T18:15:56.142Z,18.7
2016-04-20T18:16:55.489Z,18.3
2016-04-20T18:17:55.449Z,18.5
2016-04-20T18:18:55.404Z,18.4
2016-04-20T18:19:55.359Z,18.7
2016-04-20T18:20:55.363Z,18.98
2016-04-20T18:21:55.120Z,18.7
2016-04-20T18:22:55.217Z,18.7
2016-04-20T18:23:55.173Z,18.98
2016-04-20T18:24:58.144Z,18.88
2016-04-20T18:25:58.068Z,18.6
2016-04-20T18:27:01.025Z,18.88
2016-04-20T18:27:55.199Z,18.88
2016-04-20T18:28:55.014Z,18.7
2016-04-20T18:29:54.908Z,18.79
2016-04-20T18:30:54.863Z,18.98
2016-04-20T18:31:57.850Z,18.79
2016-04-20T18:32:54.760Z,18.79
2016-04-20T18:33:55.012Z,18.7
2016-04-20T18:35:03.702Z,18.7
2016-04-20T18:35:57.846Z,18.88
2016-04-20T18:36:57.614Z,18.98
2016-04-20T18:37:57.554Z,18.98
2016-04-20T18:38:57.697Z,18.7
2016-04-20T18:39:54.450Z,18.79
2016-04-20T18:40:54.422Z,18.6
2016-04-20T18:41:54.362Z,18.7
2016-04-20T18:42:54.318Z,18.88
2016-04-20T18:43:54.460Z,18.6
2016-04-20T18:44:54.229Z,18.3
2016-04-20T18:45:54.200Z,18.7
2016-04-20T18:46:54.126Z,18.7
2016-04-20T18:47:54.346Z,18.88
2016-04-20T18:48:54.037Z,18.5
2016-04-20T18:49:54.008Z,18.4
2016-04-20T18:50:57.151Z,18.4
2016-04-20T18:51:57.060Z,18.4
2016-04-20T18:52:56.876Z,18.6
2016-04-20T18:53:59.831Z,18.6
2016-04-20T18:54:56.772Z,18.21
2016-04-20T18:55:56.728Z,18.6
2016-04-20T18:56:56.683Z,18.5
2016-04-20T18:57:53.623Z,18.79
2016-04-20T18:58:53.908Z,18.7
2016-04-20T18:59:53.535Z,18.79
2016-04-20T19:00:53.507Z,18.7
2016-04-20T19:01:53.447Z,18.88
2016-04-20T19:02:53.402Z,18.7
2016-04-20T19:03:53.389Z,18.7
2016-04-20T19:04:53.330Z,18.6
2016-04-20T19:05:56.286Z,18.79
2016-04-20T19:06:53.305Z,18.88
2016-04-20T19:07:53.181Z,18.4
2016-04-20T19:08:56.184Z,18.98
2016-04-20T19:09:52.952Z,19.08
2016-04-20T19:10:53.049Z,19.08
2016-04-20T19:11:53.004Z,19.08
2016-04-20T19:12:53.180Z,18.98
2016-04-20T19:13:52.916Z,18.79
2016-04-20T19:14:58.904Z,19.18
2016-04-20T19:15:52.844Z,19.46
2016-04-20T19:16:56.096Z,19.37
2016-04-20T19:17:55.755Z,19.27
2016-04-20T19:18:55.898Z,19.27
2016-04-20T19:19:52.682Z,19.27
2016-04-20T19:20:55.810Z,19.08
2016-04-20T19:21:52.548Z,19.18
2016-04-20T19:22:52.503Z,19.37
2016-04-20T19:23:55.475Z,19.37
2016-04-20T19:24:52.414Z,19.27
2016-04-20T19:25:55.605Z,19.27
2016-04-20T19:26:52.326Z,19.08
2016-04-20T19:27:52.283Z,18.98
2016-04-20T19:28:55.269Z,19.18
2016-04-20T19:29:55.475Z,19.08
2016-04-20T19:30:52.150Z,19.18
2016-04-20T19:31:52.105Z,19.18
2016-04-20T19:32:52.078Z,19.08
2016-04-20T19:33:58.033Z,19.18
2016-04-20T19:34:54.988Z,19.18
2016-04-20T19:35:51.913Z,19.08
2016-04-20T19:36:51.885Z,19.27
2016-04-20T19:37:51.840Z,19.27
2016-04-20T19:38:51.797Z,19.27
2016-04-20T19:39:54.768Z,19.27
2016-04-20T19:40:51.708Z,19.08
2016-04-20T19:41:51.649Z,19.46
2016-04-20T19:42:54.635Z,19.65
2016-04-20T19:43:51.560Z,19.18
2016-04-20T19:44:54.531Z,19.18
2016-04-20T19:45:51.456Z,19.18
2016-04-20T19:46:51.318Z,19.37
2016-04-20T19:47:54.399Z,19.27
2016-04-20T19:48:54.339Z,19.18
2016-04-20T19:49:51.295Z,19.18
2016-04-20T19:50:54.251Z,19.27
2016-04-20T19:51:51.190Z,19.18
2016-04-20T19:52:51.162Z,19.27
2016-04-20T19:53:51.117Z,19.18
2016-04-20T19:54:51.073Z,19.08
2016-04-20T19:55:54.014Z,19.27
2016-04-20T19:56:53.986Z,19.18
2016-04-20T19:57:50.925Z,19.27
2016-04-20T19:58:50.881Z,19.27
2016-04-20T19:59:50.837Z,19.18
2016-04-20T20:00:50.793Z,19.18
2016-04-20T20:01:50.811Z,19.18
2016-04-20T20:02:50.720Z,19.27
2016-04-20T20:03:50.660Z,19.18
2016-04-20T20:04:50.617Z,19.37
2016-04-20T20:05:50.556Z,19.37
2016-04-20T20:06:50.528Z,19.27
2016-04-20T20:07:50.468Z,19.18
2016-04-20T20:08:50.424Z,19.37
2016-04-20T20:09:53.582Z,19.08
2016-04-20T20:10:50.351Z,19.08
2016-04-20T20:11:50.292Z,19.18
2016-04-20T20:12:50.262Z,19.18
2016-04-20T20:13:53.202Z,19.27
2016-04-20T20:14:53.159Z,19.18
2016-04-20T20:15:50.115Z,19.18
2016-04-20T20:16:50.071Z,19.18
2016-04-20T20:17:50.026Z,19.18
2016-04-20T20:18:49.982Z,19.37
2016-04-20T20:19:49.938Z,19.37
2016-04-20T20:20:49.893Z,19.18
2016-04-20T20:21:49.859Z,19.37
2016-04-20T20:22:52.933Z,19.65
2016-04-20T20:23:49.764Z,19.37
2016-04-20T20:24:49.875Z,19.46
2016-04-20T20:25:49.878Z,19.37
2016-04-20T20:26:49.646Z,19.65
2016-04-20T20:27:49.993Z,19.46
2016-04-20T20:28:52.527Z,19.08
2016-04-20T20:29:52.482Z,19.37
2016-04-20T20:30:49.439Z,19.56
2016-04-20T20:31:49.410Z,19.46
2016-04-20T20:32:49.350Z,19.37
2016-04-20T20:33:52.352Z,19.46
2016-04-20T20:34:49.261Z,19.46
2016-04-20T20:35:49.202Z,19.56
2016-04-20T20:36:49.360Z,19.46
2016-04-20T20:37:49.333Z,19.46
2016-04-20T20:38:52.272Z,19.46
2016-04-20T20:39:49.040Z,19.65
2016-04-20T20:40:48.981Z,19.46
2016-04-20T20:41:48.937Z,19.46
2016-04-20T20:42:51.907Z,19.46
2016-04-20T20:43:53.520Z,19.56
2016-04-20T20:44:52.023Z,19.46
2016-04-20T20:45:48.759Z,19.46
2016-04-20T20:46:48.712Z,19.46
2016-04-20T20:47:48.654Z,19.65
2016-04-20T20:48:48.625Z,19.46
2016-04-20T20:49:48.564Z,19.46
2016-04-20T20:50:51.539Z,19.46
2016-04-20T20:51:51.478Z,19.18
2016-04-20T20:52:51.450Z,19.27
2016-04-20T20:53:48.622Z,19.18
2016-04-20T20:54:54.550Z,19.27
2016-04-20T20:55:51.303Z,19.08
2016-04-20T20:56:48.256Z,19.08
2016-04-20T20:57:48.211Z,19.18
2016-04-20T20:58:48.183Z,18.98
2016-04-20T20:59:48.122Z,19.18
2016-04-20T21:00:48.173Z,19.27
2016-04-20T21:01:48.035Z,19.18
2016-04-20T21:02:47.976Z,19.27
2016-04-20T21:03:47.931Z,19.27
2016-04-20T21:04:50.906Z,19.18
2016-04-20T21:05:53.862Z,19.27
2016-04-20T21:06:48.409Z,19.18
2016-04-20T21:07:47.755Z,19.18
2016-04-20T21:08:50.726Z,19.46
2016-04-20T21:09:50.681Z,19.37
2016-04-20T21:10:47.622Z,19.37
2016-04-20T21:11:47.579Z,19.27
2016-04-20T21:12:47.377Z,19.27
2016-04-20T21:13:50.489Z,19.18
2016-04-20T21:14:47.445Z,19.27
2016-04-20T21:15:47.480Z,19.27
2016-04-20T21:16:50.342Z,19.18
2016-04-20T21:17:47.360Z,19.27
2016-04-20T21:18:50.269Z,19.37
2016-04-20T21:19:50.256Z,19.37
2016-04-20T21:20:53.183Z,19.08
2016-04-20T21:21:47.121Z,19.37
2016-04-20T21:22:53.079Z,19.27